sensor_id;sensor_type;location;lat;lon;timestamp;pressure;altitude;pressure_sealevel;temperature;humidity
51468;BME280;37545;45.302;-122.946;2022-12-24T00:01:24;101630.19;;;-0.01;92.54
51468;BME280;37545;45.302;-122.946;2022-12-24T00:03:52;101637.34;;;0.03;92.53
51468;BME280;37545;45.302;-122.946;2022-12-24T00:06:22;101630.97;;;0.08;92.64
51468;BME280;37545;45.302;-122.946;2022-12-24T00:08:52;101643.72;;;0.08;92.66
51468;BME280;37545;45.302;-122.946;2022-12-24T00:11:23;101647.28;;;0.10;92.92
51468;BME280;37545;45.302;-122.946;2022-12-24T00:13:53;101630.09;;;0.08;91.87
51468;BME280;37545;45.302;-122.946;2022-12-24T00:16:24;101636.41;;;-0.08;95.31
51468;BME280;37545;45.302;-122.946;2022-12-24T00:18:53;101637.03;;;-0.20;95.47
51468;BME280;37545;45.302;-122.946;2022-12-24T00:21:22;101632.94;;;-0.18;96.66
51468;BME280;37545;45.302;-122.946;2022-12-24T00:23:50;101630.78;;;-0.14;97.33
51468;BME280;37545;45.302;-122.946;2022-12-24T00:26:19;101630.69;;;-0.15;100.00
51468;BME280;37545;45.302;-122.946;2022-12-24T00:28:50;101644.44;;;-0.03;100.00
51468;BME280;37545;45.302;-122.946;2022-12-24T00:31:18;101637.09;;;0.00;100.00
51468;BME280;37545;45.302;-122.946;2022-12-24T00:33:47;101658.72;;;0.05;98.64
51468;BME280;37545;45.302;-122.946;2022-12-24T00:36:16;101654.78;;;0.09;97.76
51468;BME280;37545;45.302;-122.946;2022-12-24T00:38:45;101660.25;;;0.13;96.46
51468;BME280;37545;45.302;-122.946;2022-12-24T00:41:14;101668.91;;;0.15;95.26
51468;BME280;37545;45.302;-122.946;2022-12-24T00:43:57;101668.28;;;0.18;94.84
51468;BME280;37545;45.302;-122.946;2022-12-24T00:46:27;101675.28;;;0.20;95.06
51468;BME280;37545;45.302;-122.946;2022-12-24T00:48:56;101686.50;;;0.23;94.77
51468;BME280;37545;45.302;-122.946;2022-12-24T00:51:24;101689.19;;;0.24;94.37
51468;BME280;37545;45.302;-122.946;2022-12-24T00:53:53;101670.47;;;0.24;94.61
51468;BME280;37545;45.302;-122.946;2022-12-24T00:56:22;101666.13;;;0.23;94.13
51468;BME280;37545;45.302;-122.946;2022-12-24T00:58:52;101668.28;;;0.18;94.90
51468;BME280;37545;45.302;-122.946;2022-12-24T01:01:22;101664.06;;;0.08;94.86
51468;BME280;37545;45.302;-122.946;2022-12-24T01:03:52;101673.84;;;0.04;94.81
51468;BME280;37545;45.302;-122.946;2022-12-24T01:06:41;101671.78;;;-0.01;94.96
51468;BME280;37545;45.302;-122.946;2022-12-24T01:09:08;101674.34;;;-0.01;94.83
51468;BME280;37545;45.302;-122.946;2022-12-24T01:11:37;101669.13;;;-0.02;95.24
51468;BME280;37545;45.302;-122.946;2022-12-24T01:14:05;101677.50;;;-0.03;95.39
51468;BME280;37545;45.302;-122.946;2022-12-24T01:16:36;101664.66;;;-0.05;95.35
51468;BME280;37545;45.302;-122.946;2022-12-24T01:19:04;101663.03;;;-0.04;95.08
51468;BME280;37545;45.302;-122.946;2022-12-24T01:21:33;101660.09;;;-0.09;94.94
51468;BME280;37545;45.302;-122.946;2022-12-24T01:24:01;101649.50;;;-0.13;95.39
51468;BME280;37545;45.302;-122.946;2022-12-24T01:26:30;101640.06;;;-0.25;95.90
51468;BME280;37545;45.302;-122.946;2022-12-24T01:28:59;101638.47;;;-0.33;97.13
51468;BME280;37545;45.302;-122.946;2022-12-24T01:31:27;101634.81;;;-0.36;97.84
51468;BME280;37545;45.302;-122.946;2022-12-24T01:33:58;101656.66;;;-0.38;97.88
51468;BME280;37545;45.302;-122.946;2022-12-24T01:36:26;101646.72;;;-0.46;98.12
51468;BME280;37545;45.302;-122.946;2022-12-24T01:38:55;101660.63;;;-0.51;98.78
51468;BME280;37545;45.302;-122.946;2022-12-24T01:41:24;101676.94;;;-0.68;99.58
51468;BME280;37545;45.302;-122.946;2022-12-24T01:44:21;101686.56;;;-0.74;100.00
51468;BME280;37545;45.302;-122.946;2022-12-24T01:46:53;101676.59;;;-0.81;100.00
51468;BME280;37545;45.302;-122.946;2022-12-24T01:49:25;101657.16;;;-0.80;100.00
51468;BME280;37545;45.302;-122.946;2022-12-24T01:51:57;101650.94;;;-0.84;100.00
51468;BME280;37545;45.302;-122.946;2022-12-24T01:54:31;101661.22;;;-0.82;100.00
51468;BME280;37545;45.302;-122.946;2022-12-24T01:57:04;101660.38;;;-0.92;100.00
51468;BME280;37545;45.302;-122.946;2022-12-24T01:59:36;101663.84;;;-0.91;100.00
51468;BME280;37545;45.302;-122.946;2022-12-24T02:02:05;101652.44;;;-0.86;100.00
51468;BME280;37545;45.302;-122.946;2022-12-24T02:04:37;101660.91;;;-0.96;100.00
51468;BME280;37545;45.302;-122.946;2022-12-24T02:07:08;101661.50;;;-0.98;100.00
51468;BME280;37545;45.302;-122.946;2022-12-24T02:09:36;101665.56;;;-1.00;100.00
51468;BME280;37545;45.302;-122.946;2022-12-24T02:12:07;101673.44;;;-0.97;100.00
51468;BME280;37545;45.302;-122.946;2022-12-24T02:14:36;101703.03;;;-0.98;100.00
51468;BME280;37545;45.302;-122.946;2022-12-24T02:17:12;101710.72;;;-0.88;100.00
51468;BME280;37545;45.302;-122.946;2022-12-24T02:26:20;101696.50;;;-0.67;100.00
51468;BME280;37545;45.302;-122.946;2022-12-24T02:29:18;101701.88;;;-0.64;100.00
51468;BME280;37545;45.302;-122.946;2022-12-24T02:31:52;101702.16;;;-0.60;100.00
51468;BME280;37545;45.302;-122.946;2022-12-24T02:34:27;101704.38;;;-0.55;100.00
51468;BME280;37545;45.302;-122.946;2022-12-24T02:37:01;101703.84;;;-0.51;100.00
51468;BME280;37545;45.302;-122.946;2022-12-24T02:39:36;101730.41;;;-0.38;100.00
51468;BME280;37545;45.302;-122.946;2022-12-24T02:42:07;101717.31;;;-0.33;100.00
51468;BME280;37545;45.302;-122.946;2022-12-24T02:44:40;101710.97;;;-0.28;100.00
51468;BME280;37545;45.302;-122.946;2022-12-24T02:47:12;101710.00;;;-0.19;100.00
51468;BME280;37545;45.302;-122.946;2022-12-24T02:49:43;101698.59;;;-0.14;100.00
51468;BME280;37545;45.302;-122.946;2022-12-24T02:52:30;101704.22;;;-0.08;100.00
51468;BME280;37545;45.302;-122.946;2022-12-24T02:55:01;101704.63;;;-0.04;100.00
51468;BME280;37545;45.302;-122.946;2022-12-24T02:57:38;101705.00;;;0.01;99.99
51468;BME280;37545;45.302;-122.946;2022-12-24T03:00:13;101696.91;;;0.05;99.98
51468;BME280;37545;45.302;-122.946;2022-12-24T03:02:48;101701.84;;;0.04;99.36
51468;BME280;37545;45.302;-122.946;2022-12-24T03:05:25;101687.97;;;0.00;99.87
51468;BME280;37545;45.302;-122.946;2022-12-24T03:08:00;101667.00;;;0.03;100.00
51468;BME280;37545;45.302;-122.946;2022-12-24T03:10:35;101661.38;;;0.07;100.00
51468;BME280;37545;45.302;-122.946;2022-12-24T03:13:08;101651.19;;;0.07;100.00
51468;BME280;37545;45.302;-122.946;2022-12-24T03:15:38;101645.38;;;0.08;100.00
51468;BME280;37545;45.302;-122.946;2022-12-24T03:18:10;101645.63;;;0.11;100.00
51468;BME280;37545;45.302;-122.946;2022-12-24T03:20:43;101665.34;;;0.13;99.69
51468;BME280;37545;45.302;-122.946;2022-12-24T03:23:13;101676.16;;;0.11;99.57
51468;BME280;37545;45.302;-122.946;2022-12-24T03:25:42;101662.53;;;0.10;99.16
51468;BME280;37545;45.302;-122.946;2022-12-24T03:28:13;101682.66;;;0.07;99.43
51468;BME280;37545;45.302;-122.946;2022-12-24T03:30:45;101681.34;;;0.02;99.94
51468;BME280;37545;45.302;-122.946;2022-12-24T03:33:16;101667.97;;;-0.06;100.00
51468;BME280;37545;45.302;-122.946;2022-12-24T03:35:45;101678.94;;;0.04;100.00
51468;BME280;37545;45.302;-122.946;2022-12-24T03:38:13;101696.25;;;0.08;100.00
51468;BME280;37545;45.302;-122.946;2022-12-24T03:40:42;101697.41;;;0.11;100.00
51468;BME280;37545;45.302;-122.946;2022-12-24T03:43:11;101702.00;;;0.15;100.00
51468;BME280;37545;45.302;-122.946;2022-12-24T03:45:39;101711.56;;;0.18;100.00
51468;BME280;37545;45.302;-122.946;2022-12-24T03:48:08;101704.06;;;0.19;100.00
51468;BME280;37545;45.302;-122.946;2022-12-24T03:50:38;101705.97;;;0.22;100.00
51468;BME280;37545;45.302;-122.946;2022-12-24T03:53:07;101690.94;;;0.25;100.00
51468;BME280;37545;45.302;-122.946;2022-12-24T03:55:36;101682.91;;;0.20;100.00
51468;BME280;37545;45.302;-122.946;2022-12-24T03:58:06;101686.22;;;0.09;100.00
51468;BME280;37545;45.302;-122.946;2022-12-24T04:00:34;101674.22;;;-0.02;100.00
51468;BME280;37545;45.302;-122.946;2022-12-24T04:03:03;101682.06;;;-0.09;100.00
51468;BME280;37545;45.302;-122.946;2022-12-24T04:05:31;101673.16;;;-0.14;100.00
51468;BME280;37545;45.302;-122.946;2022-12-24T04:08:02;101676.94;;;-0.19;100.00
51468;BME280;37545;45.302;-122.946;2022-12-24T04:10:30;101675.19;;;-0.20;100.00
51468;BME280;37545;45.302;-122.946;2022-12-24T04:12:59;101655.81;;;-0.18;100.00
51468;BME280;37545;45.302;-122.946;2022-12-24T04:15:27;101639.03;;;-0.16;100.00
51468;BME280;37545;45.302;-122.946;2022-12-24T04:17:56;101645.44;;;-0.11;100.00
51468;BME280;37545;45.302;-122.946;2022-12-24T04:20:25;101658.44;;;-0.08;100.00
51468;BME280;37545;45.302;-122.946;2022-12-24T04:22:53;101666.59;;;-0.02;100.00
51468;BME280;37545;45.302;-122.946;2022-12-24T04:25:23;101676.53;;;0.05;100.00
51468;BME280;37545;45.302;-122.946;2022-12-24T04:27:52;101690.69;;;0.12;100.00
51468;BME280;37545;45.302;-122.946;2022-12-24T04:30:21;101706.59;;;0.19;100.00
51468;BME280;37545;45.302;-122.946;2022-12-24T04:32:50;101702.69;;;0.23;100.00
51468;BME280;37545;45.302;-122.946;2022-12-24T04:35:18;101705.72;;;0.29;100.00
51468;BME280;37545;45.302;-122.946;2022-12-24T04:37:47;101711.22;;;0.34;100.00
51468;BME280;37545;45.302;-122.946;2022-12-24T04:40:16;101709.69;;;0.36;100.00
51468;BME280;37545;45.302;-122.946;2022-12-24T04:42:46;101713.41;;;0.39;100.00
51468;BME280;37545;45.302;-122.946;2022-12-24T04:45:16;101715.31;;;0.42;100.00
51468;BME280;37545;45.302;-122.946;2022-12-24T04:47:45;101712.78;;;0.42;100.00
51468;BME280;37545;45.302;-122.946;2022-12-24T04:50:14;101705.78;;;0.39;100.00
51468;BME280;37545;45.302;-122.946;2022-12-24T04:52:42;101698.00;;;0.38;100.00
51468;BME280;37545;45.302;-122.946;2022-12-24T04:55:11;101693.03;;;0.39;100.00
51468;BME280;37545;45.302;-122.946;2022-12-24T04:57:39;101697.34;;;0.40;100.00
51468;BME280;37545;45.302;-122.946;2022-12-24T05:00:11;101689.09;;;0.43;100.00
51468;BME280;37545;45.302;-122.946;2022-12-24T05:02:39;101685.91;;;0.46;100.00
51468;BME280;37545;45.302;-122.946;2022-12-24T05:05:08;101687.97;;;0.50;100.00
51468;BME280;37545;45.302;-122.946;2022-12-24T05:07:37;101690.66;;;0.51;100.00
51468;BME280;37545;45.302;-122.946;2022-12-24T05:10:07;101687.22;;;0.51;100.00
51468;BME280;37545;45.302;-122.946;2022-12-24T05:12:36;101688.09;;;0.51;100.00
51468;BME280;37545;45.302;-122.946;2022-12-24T05:15:05;101677.03;;;0.51;100.00
51468;BME280;37545;45.302;-122.946;2022-12-24T05:17:36;101684.28;;;0.56;100.00
51468;BME280;37545;45.302;-122.946;2022-12-24T05:20:05;101680.97;;;0.57;100.00
51468;BME280;37545;45.302;-122.946;2022-12-24T05:22:34;101679.44;;;0.59;100.00
51468;BME280;37545;45.302;-122.946;2022-12-24T05:25:20;101696.75;;;0.63;100.00
51468;BME280;37545;45.302;-122.946;2022-12-24T05:28:05;101685.31;;;0.58;100.00
51468;BME280;37545;45.302;-122.946;2022-12-24T05:30:34;101695.47;;;0.69;100.00
51468;BME280;37545;45.302;-122.946;2022-12-24T05:33:04;101700.06;;;0.73;100.00
51468;BME280;37545;45.302;-122.946;2022-12-24T05:35:32;101696.00;;;0.75;100.00
51468;BME280;37545;45.302;-122.946;2022-12-24T05:38:01;101705.16;;;0.73;100.00
51468;BME280;37545;45.302;-122.946;2022-12-24T05:40:29;101700.97;;;0.73;100.00
51468;BME280;37545;45.302;-122.946;2022-12-24T05:42:58;101699.44;;;0.75;100.00
51468;BME280;37545;45.302;-122.946;2022-12-24T05:45:27;101709.78;;;0.77;100.00
51468;BME280;37545;45.302;-122.946;2022-12-24T05:48:04;101717.56;;;0.78;100.00
51468;BME280;37545;45.302;-122.946;2022-12-24T05:50:33;101704.91;;;0.80;100.00
51468;BME280;37545;45.302;-122.946;2022-12-24T05:53:02;101719.31;;;0.79;100.00
51468;BME280;37545;45.302;-122.946;2022-12-24T05:55:30;101725.31;;;0.80;100.00
51468;BME280;37545;45.302;-122.946;2022-12-24T05:57:59;101719.47;;;0.81;100.00
51468;BME280;37545;45.302;-122.946;2022-12-24T06:00:28;101704.81;;;0.78;100.00
51468;BME280;37545;45.302;-122.946;2022-12-24T06:02:56;101723.88;;;0.73;100.00
51468;BME280;37545;45.302;-122.946;2022-12-24T06:05:26;101734.72;;;0.71;100.00
51468;BME280;37545;45.302;-122.946;2022-12-24T06:07:55;101736.53;;;0.72;100.00
51468;BME280;37545;45.302;-122.946;2022-12-24T06:10:23;101747.59;;;0.72;100.00
51468;BME280;37545;45.302;-122.946;2022-12-24T06:12:52;101746.06;;;0.74;100.00
51468;BME280;37545;45.302;-122.946;2022-12-24T06:15:21;101741.88;;;0.75;100.00
51468;BME280;37545;45.302;-122.946;2022-12-24T06:17:50;101756.25;;;0.74;100.00
51468;BME280;37545;45.302;-122.946;2022-12-24T06:20:18;101753.72;;;0.74;100.00
51468;BME280;37545;45.302;-122.946;2022-12-24T06:22:48;101753.72;;;0.74;100.00
51468;BME280;37545;45.302;-122.946;2022-12-24T06:25:17;101773.31;;;0.75;100.00
51468;BME280;37545;45.302;-122.946;2022-12-24T06:27:45;101784.69;;;0.79;100.00
51468;BME280;37545;45.302;-122.946;2022-12-24T06:30:14;101784.94;;;0.82;100.00
51468;BME280;37545;45.302;-122.946;2022-12-24T06:32:43;101781.88;;;0.86;100.00
51468;BME280;37545;45.302;-122.946;2022-12-24T06:35:11;101781.25;;;0.89;100.00
51468;BME280;37545;45.302;-122.946;2022-12-24T06:37:40;101770.41;;;0.91;99.93
51468;BME280;37545;45.302;-122.946;2022-12-24T06:40:11;101767.13;;;0.92;99.75
51468;BME280;37545;45.302;-122.946;2022-12-24T06:42:39;101758.69;;;0.93;99.87
51468;BME280;37545;45.302;-122.946;2022-12-24T06:45:08;101751.19;;;0.95;100.00
51468;BME280;37545;45.302;-122.946;2022-12-24T06:47:37;101729.41;;;0.88;99.34
51468;BME280;37545;45.302;-122.946;2022-12-24T06:50:06;101723.78;;;0.82;100.00
51468;BME280;37545;45.302;-122.946;2022-12-24T06:52:35;101717.56;;;0.78;100.00
51468;BME280;37545;45.302;-122.946;2022-12-24T06:55:12;101722.88;;;0.81;100.00
51468;BME280;37545;45.302;-122.946;2022-12-24T06:57:41;101735.88;;;0.84;100.00
51468;BME280;37545;45.302;-122.946;2022-12-24T07:00:12;101743.66;;;0.86;100.00
51468;BME280;37545;45.302;-122.946;2022-12-24T07:02:40;101732.97;;;0.90;100.00
51468;BME280;37545;45.302;-122.946;2022-12-24T07:05:09;101738.31;;;0.93;100.00
51468;BME280;37545;45.302;-122.946;2022-12-24T07:07:39;101754.75;;;0.87;100.00
51468;BME280;37545;45.302;-122.946;2022-12-24T07:10:13;101749.63;;;0.87;100.00
51468;BME280;37545;45.302;-122.946;2022-12-24T07:12:42;101738.06;;;0.90;100.00
51468;BME280;37545;45.302;-122.946;2022-12-24T07:15:13;101721.88;;;0.79;100.00
51468;BME280;37545;45.302;-122.946;2022-12-24T07:17:42;101730.41;;;0.80;100.00
51468;BME280;37545;45.302;-122.946;2022-12-24T07:20:12;101729.25;;;0.76;100.00
51468;BME280;37545;45.302;-122.946;2022-12-24T07:22:41;101747.59;;;0.72;100.00
51468;BME280;37545;45.302;-122.946;2022-12-24T07:25:12;101735.34;;;0.68;100.00
51468;BME280;37545;45.302;-122.946;2022-12-24T07:27:40;101730.91;;;0.66;100.00
51468;BME280;37545;45.302;-122.946;2022-12-24T07:30:10;101753.97;;;0.67;100.00
51468;BME280;37545;45.302;-122.946;2022-12-24T07:32:38;101758.03;;;0.75;100.00
51468;BME280;37545;45.302;-122.946;2022-12-24T07:35:07;101756.50;;;0.77;100.00
51468;BME280;37545;45.302;-122.946;2022-12-24T07:37:36;101766.81;;;0.69;100.00
51468;BME280;37545;45.302;-122.946;2022-12-24T07:40:06;101773.22;;;0.74;100.00
51468;BME280;37545;45.302;-122.946;2022-12-24T07:42:36;101770.28;;;0.79;100.00
51468;BME280;37545;45.302;-122.946;2022-12-24T07:45:06;101770.94;;;0.87;100.00
51468;BME280;37545;45.302;-122.946;2022-12-24T07:47:35;101775.00;;;0.95;100.00
51468;BME280;37545;45.302;-122.946;2022-12-24T07:50:04;101774.00;;;1.03;100.00
51468;BME280;37545;45.302;-122.946;2022-12-24T07:52:33;101768.53;;;1.09;100.00
51468;BME280;37545;45.302;-122.946;2022-12-24T07:55:01;101779.09;;;1.14;100.00
51468;BME280;37545;45.302;-122.946;2022-12-24T07:57:30;101790.84;;;1.22;100.00
51468;BME280;37545;45.302;-122.946;2022-12-24T08:00:00;101796.56;;;1.30;100.00
51468;BME280;37545;45.302;-122.946;2022-12-24T08:02:29;101792.88;;;1.36;100.00
51468;BME280;37545;45.302;-122.946;2022-12-24T08:04:58;101791.59;;;1.41;100.00
51468;BME280;37545;45.302;-122.946;2022-12-24T08:07:26;101774.13;;;1.46;100.00
51468;BME280;37545;45.302;-122.946;2022-12-24T08:09:55;101782.78;;;1.48;100.00
51468;BME280;37545;45.302;-122.946;2022-12-24T08:12:23;101761.38;;;1.46;100.00
51468;BME280;37545;45.302;-122.946;2022-12-24T08:14:52;101758.69;;;1.55;100.00
51468;BME280;37545;45.302;-122.946;2022-12-24T08:17:22;101774.00;;;1.55;100.00
51468;BME280;37545;45.302;-122.946;2022-12-24T08:19:51;101767.50;;;1.58;100.00
51468;BME280;37545;45.302;-122.946;2022-12-24T08:22:19;101764.16;;;1.59;100.00
51468;BME280;37545;45.302;-122.946;2022-12-24T08:24:48;101762.63;;;1.61;100.00
51468;BME280;37545;45.302;-122.946;2022-12-24T08:27:16;101778.97;;;1.63;100.00
51468;BME280;37545;45.302;-122.946;2022-12-24T08:29:45;101777.28;;;1.64;100.00
51468;BME280;37545;45.302;-122.946;2022-12-24T08:32:13;101782.25;;;1.62;99.38
51468;BME280;37545;45.302;-122.946;2022-12-24T08:34:43;101772.06;;;1.62;99.22
51468;BME280;37545;45.302;-122.946;2022-12-24T08:37:12;101776.28;;;1.62;98.44
51468;BME280;37545;45.302;-122.946;2022-12-24T08:39:40;101770.28;;;1.61;97.73
51468;BME280;37545;45.302;-122.946;2022-12-24T08:42:09;101763.50;;;1.62;97.99
51468;BME280;37545;45.302;-122.946;2022-12-24T08:44:38;101760.97;;;1.62;97.67
51468;BME280;37545;45.302;-122.946;2022-12-24T08:47:06;101764.31;;;1.61;98.25
51468;BME280;37545;45.302;-122.946;2022-12-24T08:49:45;101762.78;;;1.63;97.84
51468;BME280;37545;45.302;-122.946;2022-12-24T08:52:14;101762.50;;;1.60;97.98
51468;BME280;37545;45.302;-122.946;2022-12-24T08:54:42;101762.91;;;1.54;98.35
51468;BME280;37545;45.302;-122.946;2022-12-24T08:57:11;101767.72;;;1.51;98.53
51468;BME280;37545;45.302;-122.946;2022-12-24T08:59:40;101772.22;;;1.54;99.10
51468;BME280;37545;45.302;-122.946;2022-12-24T09:02:08;101769.91;;;1.57;98.90
51468;BME280;37545;45.302;-122.946;2022-12-24T09:04:37;101763.28;;;1.59;98.97
51468;BME280;37545;45.302;-122.946;2022-12-24T09:07:09;101754.75;;;1.58;98.32
51468;BME280;37545;45.302;-122.946;2022-12-24T09:09:44;101747.19;;;1.60;98.38
51468;BME280;37545;45.302;-122.946;2022-12-24T09:12:12;101753.31;;;1.62;97.72
51468;BME280;37545;45.302;-122.946;2022-12-24T09:14:41;101756.66;;;1.61;98.65
51468;BME280;37545;45.302;-122.946;2022-12-24T09:17:10;101760.97;;;1.62;98.97
51468;BME280;37545;45.302;-122.946;2022-12-24T09:19:38;101767.88;;;1.63;98.97
51468;BME280;37545;45.302;-122.946;2022-12-24T09:22:08;101769.63;;;1.64;98.83
51468;BME280;37545;45.302;-122.946;2022-12-24T09:24:37;101774.97;;;1.67;98.76
51468;BME280;37545;45.302;-122.946;2022-12-24T09:27:05;101771.69;;;1.68;98.84
51468;BME280;37545;45.302;-122.946;2022-12-24T09:29:34;101775.13;;;1.68;98.33
51468;BME280;37545;45.302;-122.946;2022-12-24T09:32:06;101776.13;;;1.71;99.62
51468;BME280;37545;45.302;-122.946;2022-12-24T09:34:35;101756.09;;;1.75;98.57
51468;BME280;37545;45.302;-122.946;2022-12-24T09:37:04;101763.97;;;1.78;98.07
51468;BME280;37545;45.302;-122.946;2022-12-24T09:39:34;101767.47;;;1.79;98.37
51468;BME280;37545;45.302;-122.946;2022-12-24T09:42:10;101768.44;;;1.81;99.03
51468;BME280;37545;45.302;-122.946;2022-12-24T09:44:44;101770.25;;;1.82;98.47
51468;BME280;37545;45.302;-122.946;2022-12-24T09:47:21;101787.22;;;1.81;98.48
51468;BME280;37545;45.302;-122.946;2022-12-24T09:49:53;101793.34;;;1.83;98.90
51468;BME280;37545;45.302;-122.946;2022-12-24T09:52:28;101790.00;;;1.84;98.18
51468;BME280;37545;45.302;-122.946;2022-12-24T09:55:06;101791.53;;;1.82;97.36
51468;BME280;37545;45.302;-122.946;2022-12-24T09:57:37;101792.31;;;1.81;98.09
51468;BME280;37545;45.302;-122.946;2022-12-24T10:00:17;101789.13;;;1.84;98.02
51468;BME280;37545;45.302;-122.946;2022-12-24T10:02:46;101781.84;;;1.88;98.43
51468;BME280;37545;45.302;-122.946;2022-12-24T10:05:30;101787.47;;;1.84;98.06
51468;BME280;37545;45.302;-122.946;2022-12-24T10:08:09;101776.22;;;1.82;98.15
51468;BME280;37545;45.302;-122.946;2022-12-24T10:10:49;101781.09;;;1.79;98.09
51468;BME280;37545;45.302;-122.946;2022-12-24T10:13:27;101793.06;;;1.80;97.98
51468;BME280;37545;45.302;-122.946;2022-12-24T10:16:02;101792.31;;;1.81;98.32
51468;BME280;37545;45.302;-122.946;2022-12-24T10:18:41;101784.91;;;1.84;97.85
51468;BME280;37545;45.302;-122.946;2022-12-24T10:21:15;101778.28;;;1.86;97.34
51468;BME280;37545;45.302;-122.946;2022-12-24T10:23:49;101783.38;;;1.86;97.18
51468;BME280;37545;45.302;-122.946;2022-12-24T10:26:26;101783.50;;;1.88;97.99
51468;BME280;37545;45.302;-122.946;2022-12-24T10:28:58;101795.50;;;1.89;97.43
51468;BME280;37545;45.302;-122.946;2022-12-24T10:31:30;101786.69;;;1.85;97.21
51468;BME280;37545;45.302;-122.946;2022-12-24T10:34:01;101801.25;;;1.86;97.39
51468;BME280;37545;45.302;-122.946;2022-12-24T10:36:32;101817.56;;;1.88;97.93
51468;BME280;37545;45.302;-122.946;2022-12-24T10:39:01;101810.94;;;1.91;98.00
51468;BME280;37545;45.302;-122.946;2022-12-24T10:41:31;101807.59;;;1.92;96.92
51468;BME280;37545;45.302;-122.946;2022-12-24T10:44:03;101805.19;;;1.83;96.54
51468;BME280;37545;45.302;-122.946;2022-12-24T10:46:35;101798.44;;;1.73;97.79
51468;BME280;37545;45.302;-122.946;2022-12-24T10:49:07;101797.31;;;1.70;99.18
51468;BME280;37545;45.302;-122.946;2022-12-24T10:51:42;101792.84;;;1.67;99.63
51468;BME280;37545;45.302;-122.946;2022-12-24T10:54:14;101788.50;;;1.66;98.92
51468;BME280;37545;45.302;-122.946;2022-12-24T10:56:47;101789.31;;;1.65;99.42
51468;BME280;37545;45.302;-122.946;2022-12-24T10:59:25;101792.72;;;1.65;100.00
51468;BME280;37545;45.302;-122.946;2022-12-24T11:01:54;101786.09;;;1.67;99.96
51468;BME280;37545;45.302;-122.946;2022-12-24T11:04:24;101793.63;;;1.66;99.88
51468;BME280;37545;45.302;-122.946;2022-12-24T11:06:54;101786.75;;;1.65;100.00
51468;BME280;37545;45.302;-122.946;2022-12-24T11:09:25;101790.41;;;1.68;100.00
51468;BME280;37545;45.302;-122.946;2022-12-24T11:11:57;101800.75;;;1.70;100.00
51468;BME280;37545;45.302;-122.946;2022-12-24T11:14:31;101804.34;;;1.72;100.00
51468;BME280;37545;45.302;-122.946;2022-12-24T11:17:01;101790.94;;;1.75;99.44
51468;BME280;37545;45.302;-122.946;2022-12-24T11:19:31;101789.91;;;1.73;99.11
51468;BME280;37545;45.302;-122.946;2022-12-24T11:22:02;101793.84;;;1.69;99.91
51468;BME280;37545;45.302;-122.946;2022-12-24T11:24:32;101790.03;;;1.64;99.10
51468;BME280;37545;45.302;-122.946;2022-12-24T11:30:24;101777.91;;;1.72;100.00
51468;BME280;37545;45.302;-122.946;2022-12-24T11:33:14;101779.19;;;1.77;99.61
51468;BME280;37545;45.302;-122.946;2022-12-24T11:35:51;101775.13;;;1.79;99.53
51468;BME280;37545;45.302;-122.946;2022-12-24T11:38:22;101777.75;;;1.80;100.00
51468;BME280;37545;45.302;-122.946;2022-12-24T11:41:07;101771.38;;;1.85;100.00
51468;BME280;37545;45.302;-122.946;2022-12-24T11:43:42;101765.50;;;1.86;99.46
51468;BME280;37545;45.302;-122.946;2022-12-24T11:46:18;101770.75;;;1.88;98.79
51468;BME280;37545;45.302;-122.946;2022-12-24T11:48:47;101763.97;;;1.88;98.82
51468;BME280;37545;45.302;-122.946;2022-12-24T11:51:22;101767.41;;;1.89;99.22
51468;BME280;37545;45.302;-122.946;2022-12-24T11:53:58;101759.88;;;1.91;99.25
51468;BME280;37545;45.302;-122.946;2022-12-24T11:56:34;101756.78;;;1.95;98.98
51468;BME280;37545;45.302;-122.946;2022-12-24T11:59:11;101762.69;;;1.94;98.27
51468;BME280;37545;45.302;-122.946;2022-12-24T12:01:50;101758.59;;;1.96;98.46
51468;BME280;37545;45.302;-122.946;2022-12-24T12:04:24;101760.34;;;1.97;98.21
51468;BME280;37545;45.302;-122.946;2022-12-24T12:06:59;101766.25;;;1.96;98.58
51468;BME280;37545;45.302;-122.946;2022-12-24T12:09:31;101762.91;;;1.97;98.77
51468;BME280;37545;45.302;-122.946;2022-12-24T12:12:04;101763.19;;;2.00;98.64
51468;BME280;37545;45.302;-122.946;2022-12-24T12:14:37;101773.50;;;2.01;97.58
51468;BME280;37545;45.302;-122.946;2022-12-24T12:17:15;101770.06;;;2.01;97.70
51468;BME280;37545;45.302;-122.946;2022-12-24T12:19:50;101752.19;;;2.01;97.29
51468;BME280;37545;45.302;-122.946;2022-12-24T12:22:25;101762.41;;;2.01;97.28
51468;BME280;37545;45.302;-122.946;2022-12-24T12:24:57;101775.94;;;2.00;97.82
51468;BME280;37545;45.302;-122.946;2022-12-24T12:27:31;101755.53;;;2.00;98.06
51468;BME280;37545;45.302;-122.946;2022-12-24T12:30:03;101753.25;;;1.93;97.42
51468;BME280;37545;45.302;-122.946;2022-12-24T12:32:41;101766.91;;;1.93;98.58
51468;BME280;37545;45.302;-122.946;2022-12-24T12:35:18;101764.44;;;1.95;98.42
51468;BME280;37545;45.302;-122.946;2022-12-24T12:37:54;101762.16;;;1.98;99.02
51468;BME280;37545;45.302;-122.946;2022-12-24T12:40:39;101747.09;;;2.01;98.86
51468;BME280;37545;45.302;-122.946;2022-12-24T12:43:18;101740.66;;;2.06;98.50
51468;BME280;37545;45.302;-122.946;2022-12-24T12:45:53;101721.25;;;2.08;97.59
51468;BME280;37545;45.302;-122.946;2022-12-24T12:48:51;101712.06;;;2.10;97.57
51468;BME280;37545;45.302;-122.946;2022-12-24T12:51:27;101711.31;;;2.11;97.54
51468;BME280;37545;45.302;-122.946;2022-12-24T12:54:15;101708.63;;;2.09;97.78